Time;durP1;ratioP1;P1;durP2;ratioP2;P2;SDS_P1;SDS_P2;PMS_P1;PMS_P2;Temp;Humidity;BMP_temperature;BMP_pressure;BME280_temperature;BME280_humidity;BME280_pressure;Samples;Min_cycle;Max_cycle;Signal;HPM_P1;HPM_P2
2022/07/30 00:03:41;;;;;;;17.20;15.60;;;;;;;;;;10069863;28;20072;-66
2022/07/30 00:08:35;;;;;;;17.50;15.80;;;;;;;;;;10070734;28;20414;-66
2022/07/30 00:13:30;;;;;;;17.75;16.02;;;;;;;;;;10072662;28;20412;-65
2022/07/30 00:18:23;;;;;;;22.23;18.73;;;;;;;;;;10072055;28;20058;-66
2022/07/30 00:23:18;;;;;;;19.77;17.63;;;;;;;;;;10070666;28;20042;-66
2022/07/30 00:28:12;;;;;;;18.85;16.80;;;;;;;;;;10061929;28;20129;-66
2022/07/30 00:33:06;;;;;;;19.90;17.65;;;;;;;;;;10066286;28;20042;-66
2022/07/30 00:38:00;;;;;;;20.05;18.27;;;;;;;;;;10070457;28;20050;-65
2022/07/30 00:42:54;;;;;;;19.45;17.45;;;;;;;;;;10059581;28;20413;-66
2022/07/30 00:47:47;;;;;;;20.13;18.23;;;;;;;;;;10070343;28;20384;-66
2022/07/30 00:52:41;;;;;;;19.13;16.85;;;;;;;;;;10056732;28;20057;-65
2022/07/30 00:57:35;;;;;;;18.75;16.85;;;;;;;;;;10068591;28;20049;-65
2022/07/30 01:02:28;;;;;;;17.17;15.50;;;;;;;;;;10066918;28;20049;-66
2022/07/30 01:07:23;;;;;;;19.88;17.98;;;;;;;;;;10068589;28;20053;-66
2022/07/30 01:12:20;;;;;;;23.23;20.60;;;;;;;;;;10056801;28;20080;-66
2022/07/30 01:17:14;;;;;;;23.98;21.58;;;;;;;;;;10061606;28;20129;-66
2022/07/30 01:22:15;;;;;;;22.02;19.85;;;;;;;;;;10064533;28;20413;-66
2022/07/30 01:27:10;;;;;;;22.15;19.95;;;;;;;;;;10059323;28;20050;-66
2022/07/30 01:32:04;;;;;;;23.55;20.95;;;;;;;;;;10065505;28;20413;-66
2022/07/30 01:36:58;;;;;;;21.25;19.13;;;;;;;;;;10068519;28;20500;-66
2022/07/30 01:41:54;;;;;;;22.17;19.77;;;;;;;;;;10067792;28;20041;-66
2022/07/30 01:46:48;;;;;;;21.88;19.63;;;;;;;;;;10068294;28;20041;-66
2022/07/30 01:51:43;;;;;;;22.10;19.85;;;;;;;;;;10046643;28;20099;-65
2022/07/30 01:56:36;;;;;;;24.08;19.05;;;;;;;;;;10067095;28;20049;-66
2022/07/30 02:01:30;;;;;;;21.27;19.27;;;;;;;;;;10058419;28;20045;-66
2022/07/30 02:06:31;;;;;;;23.20;20.85;;;;;;;;;;10051255;28;20050;-66
2022/07/30 02:16:39;;;;;;;20.27;15.95;;;;;;;;;;10056484;28;20444;-66
2022/07/30 02:21:36;;;;;;;23.10;18.15;;;;;;;;;;10038415;28;20080;-66
2022/07/30 02:26:30;;;;;;;19.70;17.50;;;;;;;;;;10044540;28;20057;-66
2022/07/30 02:31:26;;;;;;;19.05;17.33;;;;;;;;;;10051647;28;20049;-66
2022/07/30 02:36:21;;;;;;;19.52;17.55;;;;;;;;;;10060645;28;20045;-66
2022/07/30 02:41:15;;;;;;;17.15;15.52;;;;;;;;;;10052595;28;20053;-66
2022/07/30 02:46:11;;;;;;;18.85;16.25;;;;;;;;;;10065358;28;20396;-66
2022/07/30 02:51:25;;;;;;;16.55;15.05;;;;;;;;;;10067234;28;20152;-66
2022/07/30 02:56:21;;;;;;;19.02;16.77;;;;;;;;;;10049545;28;20046;-66
2022/07/30 03:01:15;;;;;;;18.10;16.35;;;;;;;;;;10062248;28;20500;-66
2022/07/30 03:06:09;;;;;;;17.48;15.73;;;;;;;;;;10058438;28;20049;-66
2022/07/30 03:11:02;;;;;;;18.38;16.52;;;;;;;;;;10047798;28;20049;-66
2022/07/30 03:15:57;;;;;;;24.52;19.67;;;;;;;;;;10072790;28;20455;-65
2022/07/30 03:20:54;;;;;;;21.25;19.05;;;;;;;;;;10057601;28;20424;-66
2022/07/30 03:25:55;;;;;;;22.25;19.60;;;;;;;;;;10068335;28;20045;-66
2022/07/30 03:30:51;;;;;;;19.98;18.05;;;;;;;;;;10064370;28;20570;-65
2022/07/30 03:35:46;;;;;;;19.55;17.42;;;;;;;;;;10070713;28;20046;-66
2022/07/30 03:40:41;;;;;;;19.80;17.73;;;;;;;;;;10068275;28;20083;-66
2022/07/30 03:45:40;;;;;;;17.77;15.98;;;;;;;;;;10050399;28;20100;-66
2022/07/30 03:50:36;;;;;;;18.63;16.67;;;;;;;;;;10070750;28;20054;-66
2022/07/30 03:55:33;;;;;;;19.52;17.45;;;;;;;;;;10072866;28;20045;-66
2022/07/30 04:00:48;;;;;;;21.23;18.92;;;;;;;;;;10062116;28;20053;-66
2022/07/30 04:05:41;;;;;;;25.45;19.80;;;;;;;;;;10063332;28;20042;-66
2022/07/30 04:10:37;;;;;;;19.83;17.88;;;;;;;;;;10062254;28;20045;-66
2022/07/30 04:16:14;;;;;;;20.35;18.35;;;;;;;;;;10063795;28;20144;-65
2022/07/30 04:21:28;;;;;;;20.45;18.48;;;;;;;;;;10051100;28;20049;-66
2022/07/30 04:26:22;;;;;;;19.08;17.23;;;;;;;;;;10046062;28;20048;-65
2022/07/30 04:31:18;;;;;;;19.98;17.90;;;;;;;;;;10063714;28;20575;-65
2022/07/30 04:36:15;;;;;;;18.88;16.98;;;;;;;;;;10051423;28;20057;-66
2022/07/30 04:41:10;;;;;;;20.13;15.75;;;;;;;;;;10058353;28;20103;-66
2022/07/30 04:46:22;;;;;;;17.63;15.75;;;;;;;;;;10062979;28;20124;-65
2022/07/30 04:51:33;;;;;;;17.40;14.98;;;;;;;;;;10066764;28;20055;-66
2022/07/30 04:56:30;;;;;;;17.15;15.20;;;;;;;;;;10066653;28;20046;-66
2022/07/30 05:01:26;;;;;;;22.58;16.35;;;;;;;;;;10050965;28;20420;-67
2022/07/30 05:06:33;;;;;;;19.25;17.35;;;;;;;;;;10053060;28;20057;-67
2022/07/30 05:11:27;;;;;;;21.60;18.48;;;;;;;;;;10060858;28;20099;-68
2022/07/30 05:16:22;;;;;;;21.30;19.15;;;;;;;;;;10063034;28;20049;-67
2022/07/30 05:21:19;;;;;;;24.52;19.83;;;;;;;;;;10066157;28;20068;-66
2022/07/30 05:26:13;;;;;;;21.27;19.00;;;;;;;;;;10065488;28;20455;-67
2022/07/30 05:31:09;;;;;;;25.70;21.30;;;;;;;;;;10069315;28;20050;-66
2022/07/30 05:36:06;;;;;;;23.65;21.20;;;;;;;;;;10066041;28;20045;-66
2022/07/30 05:41:04;;;;;;;24.27;21.73;;;;;;;;;;10055305;28;20144;-66
2022/07/30 05:46:31;;;;;;;23.92;21.27;;;;;;;;;;10067645;28;20374;-68
2022/07/30 05:51:24;;;;;;;25.70;22.23;;;;;;;;;;10065937;28;20052;-67
2022/07/30 05:56:18;;;;;;;22.73;20.20;;;;;;;;;;10067536;28;20096;-68
2022/07/30 06:01:37;;;;;;;23.63;19.98;;;;;;;;;;10057783;28;20060;-67
2022/07/30 06:06:39;;;;;;;24.95;20.70;;;;;;;;;;10062534;28;20098;-67
2022/07/30 06:11:33;;;;;;;23.60;20.80;;;;;;;;;;10096999;28;20090;-67
2022/07/30 06:16:28;;;;;;;22.10;18.85;;;;;;;;;;10093537;28;20450;-68
2022/07/30 06:21:22;;;;;;;22.15;19.80;;;;;;;;;;10094371;28;20053;-67
2022/07/30 06:26:31;;;;;;;22.30;19.92;;;;;;;;;;10085737;28;20046;-68
2022/07/30 06:31:28;;;;;;;21.75;18.80;;;;;;;;;;10039941;28;20061;-68
2022/07/30 06:36:22;;;;;;;22.10;19.77;;;;;;;;;;10066432;28;20527;-68
2022/07/30 06:41:23;;;;;;;24.70;19.92;;;;;;;;;;10066086;28;20420;-67
2022/07/30 06:46:21;;;;;;;24.35;20.27;;;;;;;;;;10065817;28;20080;-67
2022/07/30 06:51:16;;;;;;;23.05;20.52;;;;;;;;;;10067925;28;20580;-68
2022/07/30 06:56:10;;;;;;;23.23;20.25;;;;;;;;;;10061579;28;20057;-69
2022/07/30 07:01:17;;;;;;;24.48;20.17;;;;;;;;;;10059797;28;20107;-67
2022/07/30 07:06:13;;;;;;;22.13;17.67;;;;;;;;;;10071742;28;20111;-67
2022/07/30 07:11:11;;;;;;;18.52;14.82;;;;;;;;;;10055142;28;20072;-67
2022/07/30 07:16:15;;;;;;;17.10;15.07;;;;;;;;;;10061141;28;20068;-66
2022/07/30 07:21:12;;;;;;;16.30;14.60;;;;;;;;;;10063311;28;20061;-67
2022/07/30 07:26:06;;;;;;;18.05;15.85;;;;;;;;;;10065432;28;20496;-67
2022/07/30 07:30:59;;;;;;;15.70;14.20;;;;;;;;;;10058969;28;20045;-67
2022/07/30 07:35:54;;;;;;;15.85;14.43;;;;;;;;;;10063999;28;20107;-66
2022/07/30 07:40:56;;;;;;;15.40;11.50;;;;;;;;;;10064697;28;20073;-66
2022/07/30 07:45:49;;;;;;;14.75;11.40;;;;;;;;;;10053231;28;20051;-66
2022/07/30 07:50:44;;;;;;;11.05;9.95;;;;;;;;;;10064020;28;20056;-66
2022/07/30 07:55:50;;;;;;;9.57;8.43;;;;;;;;;;10063067;28;20050;-66
2022/07/30 08:00:48;;;;;;;8.75;7.88;;;;;;;;;;10073953;28;20057;-66
2022/07/30 08:05:45;;;;;;;19.20;8.30;;;;;;;;;;10074072;28;20132;-65
2022/07/30 08:11:32;;;;;;;11.43;8.48;;;;;;;;;;10070579;28;20068;-68
2022/07/30 08:16:56;;;;;;;8.48;7.70;;;;;;;;;;10059077;28;20132;-63
2022/07/30 08:22:09;;;;;;;8.13;7.32;;;;;;;;;;10058355;28;20076;-72
2022/07/30 08:27:04;;;;;;;7.18;6.47;;;;;;;;;;10069248;28;20107;-70
2022/07/30 08:31:58;;;;;;;7.10;5.75;;;;;;;;;;10070931;28;20049;-71
2022/07/30 08:36:52;;;;;;;6.55;5.93;;;;;;;;;;10068669;28;20049;-68
2022/07/30 08:41:45;;;;;;;5.53;5.03;;;;;;;;;;10069663;28;20067;-70
2022/07/30 08:46:41;;;;;;;5.40;4.85;;;;;;;;;;10039913;28;20073;-69
2022/07/30 08:51:59;;;;;;;6.60;6.00;;;;;;;;;;10060109;28;20153;-68
2022/07/30 08:57:06;;;;;;;6.20;5.10;;;;;;;;;;10069876;28;20124;-67
2022/07/30 09:02:02;;;;;;;5.60;5.07;;;;;;;;;;10069093;28;20088;-68
2022/07/30 09:07:18;;;;;;;9.50;4.85;;;;;;;;;;10068560;28;20091;-68
2022/07/30 09:12:32;;;;;;;4.90;4.20;;;;;;;;;;10068795;28;20050;-68
2022/07/30 09:17:26;;;;;;;7.55;4.78;;;;;;;;;;10062003;28;20053;-67
2022/07/30 09:22:42;;;;;;;4.95;4.30;;;;;;;;;;10059385;28;20050;-67
2022/07/30 09:27:54;;;;;;;4.75;3.65;;;;;;;;;;10064392;28;20127;-66
2022/07/30 09:33:05;;;;;;;6.25;4.82;;;;;;;;;;10068945;28;20068;-68
2022/07/30 09:38:51;;;;;;;4.53;3.70;;;;;;;;;;10017165;28;20083;-70
2022/07/30 09:44:08;;;;;;;5.47;4.20;;;;;;;;;;10061838;28;20100;-75
2022/07/30 09:49:18;;;;;;;4.57;3.90;;;;;;;;;;10070443;28;20045;-67
2022/07/30 09:54:12;;;;;;;3.88;3.58;;;;;;;;;;10067736;28;20488;-70
2022/07/30 09:59:06;;;;;;;3.65;2.83;;;;;;;;;;10067104;28;20465;-68
2022/07/30 10:04:51;;;;;;;6.38;3.53;;;;;;;;;;10073696;28;20459;-68
2022/07/30 10:09:47;;;;;;;4.63;3.40;;;;;;;;;;10061781;28;20655;-69
2022/07/30 10:14:45;;;;;;;4.80;3.22;;;;;;;;;;10059047;28;20049;-66
2022/07/30 10:19:42;;;;;;;6.15;3.50;;;;;;;;;;10056877;28;20077;-65
2022/07/30 10:24:58;;;;;;;3.17;2.55;;;;;;;;;;10063804;28;20048;-66
2022/07/30 10:30:11;;;;;;;5.32;3.95;;;;;;;;;;10083184;28;20152;-68
2022/07/30 10:35:07;;;;;;;5.18;3.83;;;;;;;;;;10075827;28;20084;-66
2022/07/30 10:40:22;;;;;;;4.68;3.00;;;;;;;;;;10065728;28;20057;-64
2022/07/30 10:45:48;;;;;;;6.03;2.63;;;;;;;;;;10058842;28;20167;-64
2022/07/30 10:50:54;;;;;;;4.32;2.60;;;;;;;;;;10060358;28;20049;-63
2022/07/30 10:56:10;;;;;;;3.50;2.97;;;;;;;;;;10057571;28;20046;-63
2022/07/30 11:01:04;;;;;;;6.55;2.75;;;;;;;;;;10060050;28;20061;-63
2022/07/30 11:06:15;;;;;;;;;;;;;;;;;;10066138;28;20041;-63
2022/07/30 11:11:21;;;;;;;3.73;2.63;;;;;;;;;;10063672;28;19921;-63
2022/07/30 11:16:34;;;;;;;3.10;2.78;;;;;;;;;;10059641;28;20051;-63
2022/07/30 11:21:28;;;;;;;2.33;2.00;;;;;;;;;;10072678;28;20053;-64
2022/07/30 11:26:38;;;;;;;3.60;2.87;;;;;;;;;;10074803;28;20057;-64
2022/07/30 11:31:37;;;;;;;4.03;2.55;;;;;;;;;;10062566;28;20299;-64
2022/07/30 11:37:27;;;;;;;3.17;2.67;;;;;;;;;;10068759;28;20051;-65
2022/07/30 11:42:34;;;;;;;4.90;2.45;;;;;;;;;;10053112;28;20059;-65
2022/07/30 11:47:28;;;;;;;5.90;3.10;;;;;;;;;;10071360;28;20127;-66
2022/07/30 11:52:23;;;;;;;4.45;2.15;;;;;;;;;;10071943;28;20416;-66
2022/07/30 11:57:17;;;;;;;3.47;2.15;;;;;;;;;;10072866;28;20057;-66
2022/07/30 12:02:11;;;;;;;2.35;1.90;;;;;;;;;;10068389;28;20539;-66
2022/07/30 12:07:05;;;;;;;1.92;1.83;;;;;;;;;;10065894;28;20141;-66
2022/07/30 12:12:01;;;;;;;2.63;2.42;;;;;;;;;;10068861;28;20230;-66
2022/07/30 12:16:58;;;;;;;2.13;1.60;;;;;;;;;;10067852;28;20061;-66
2022/07/30 12:21:52;;;;;;;2.75;2.00;;;;;;;;;;10064510;28;20064;-66
2022/07/30 12:26:46;;;;;;;4.25;1.70;;;;;;;;;;10070074;28;20054;-66
2022/07/30 12:31:40;;;;;;;2.53;2.25;;;;;;;;;;10071630;28;20053;-67
2022/07/30 12:36:36;;;;;;;5.68;2.00;;;;;;;;;;10070020;28;20053;-67
2022/07/30 12:42:03;;;;;;;2.38;1.55;;;;;;;;;;10067128;28;20041;-67
2022/07/30 12:46:58;;;;;;;1.70;1.52;;;;;;;;;;10070235;28;20451;-67
2022/07/30 12:51:52;;;;;;;2.50;1.42;;;;;;;;;;10071438;28;20066;-67
2022/07/30 12:57:03;;;;;;;2.75;2.10;;;;;;;;;;10082634;28;20484;-69
2022/07/30 13:01:59;;;;;;;2.15;1.63;;;;;;;;;;10076800;28;20063;-67
2022/07/30 13:07:07;;;;;;;;;;;;;;;;;;10096914;28;20053;-66
2022/07/30 13:12:01;;;;;;;4.15;1.80;;;;;;;;;;10094855;28;19928;-66
2022/07/30 13:16:57;;;;;;;3.80;1.60;;;;;;;;;;10067905;28;20047;-66
2022/07/30 13:21:51;;;;;;;2.20;2.00;;;;;;;;;;10066886;28;20057;-68
2022/07/30 13:26:46;;;;;;;1.88;1.63;;;;;;;;;;10068348;28;20045;-68
2022/07/30 13:31:43;;;;;;;1.65;1.55;;;;;;;;;;10066691;28;20057;-69
2022/07/30 13:36:37;;;;;;;1.70;1.57;;;;;;;;;;10075120;28;20490;-67
2022/07/30 13:41:34;;;;;;;3.45;1.75;;;;;;;;;;10080108;28;20076;-67
2022/07/30 13:46:29;;;;;;;2.92;1.65;;;;;;;;;;10057124;28;20052;-68
2022/07/30 13:51:24;;;;;;;2.17;1.97;;;;;;;;;;10068188;28;20046;-68
2022/07/30 13:56:17;;;;;;;2.53;2.33;;;;;;;;;;10065197;28;20148;-68
2022/07/30 14:01:11;;;;;;;2.10;1.90;;;;;;;;;;10066262;28;20049;-66
2022/07/30 14:06:10;;;;;;;4.57;1.52;;;;;;;;;;10068300;28;20420;-67
2022/07/30 14:11:03;;;;;;;2.15;1.45;;;;;;;;;;10066691;28;20045;-66
2022/07/30 14:15:57;;;;;;;1.83;1.30;;;;;;;;;;10066267;28;20052;-67
2022/07/30 14:20:52;;;;;;;0.98;0.98;;;;;;;;;;10066426;28;20061;-66
2022/07/30 14:25:46;;;;;;;2.05;1.77;;;;;;;;;;10065375;28;20049;-67
2022/07/30 14:30:41;;;;;;;2.13;1.93;;;;;;;;;;10066677;28;20080;-66
2022/07/30 14:35:35;;;;;;;3.33;1.73;;;;;;;;;;10067154;28;20132;-66
2022/07/30 14:40:28;;;;;;;3.40;1.45;;;;;;;;;;10058665;28;20045;-67
2022/07/30 14:45:22;;;;;;;2.05;1.67;;;;;;;;;;10057388;28;20088;-66
2022/07/30 14:50:17;;;;;;;2.43;2.23;;;;;;;;;;10058263;28;20053;-66
2022/07/30 14:55:11;;;;;;;1.83;1.73;;;;;;;;;;10053090;28;20305;-63
2022/07/30 15:00:09;;;;;;;7.35;2.00;;;;;;;;;;10054319;28;20054;-65
2022/07/30 15:05:03;;;;;;;3.80;1.98;;;;;;;;;;10057171;28;20075;-65
2022/07/30 15:09:58;;;;;;;11.85;2.88;;;;;;;;;;10057632;28;20053;-66
2022/07/30 15:14:52;;;;;;;2.65;1.40;;;;;;;;;;10058045;28;20452;-66
2022/07/30 15:19:47;;;;;;;4.25;1.88;;;;;;;;;;10050278;28;20069;-71
2022/07/30 15:24:43;;;;;;;;;;;;;;;;;;10052434;28;20061;-65
2022/07/30 15:29:38;;;;;;;5.22;1.50;;;;;;;;;;10056170;28;19922;-66
2022/07/30 15:34:33;;;;;;;6.50;2.35;;;;;;;;;;10049823;28;20053;-63
2022/07/30 15:39:28;;;;;;;1.98;1.60;;;;;;;;;;10037446;28;20125;-66
2022/07/30 15:44:22;;;;;;;2.58;1.17;;;;;;;;;;10053206;28;20077;-66
2022/07/30 15:49:17;;;;;;;5.05;1.50;;;;;;;;;;10060675;28;20465;-65
2022/07/30 15:54:11;;;;;;;2.10;1.85;;;;;;;;;;10058459;28;20455;-64
2022/07/30 15:59:06;;;;;;;3.20;1.42;;;;;;;;;;10052103;28;20103;-64
2022/07/30 16:04:00;;;;;;;1.70;1.60;;;;;;;;;;10043680;28;20053;-64
2022/07/30 16:08:54;;;;;;;1.95;1.10;;;;;;;;;;10056010;28;20093;-65
2022/07/30 16:13:48;;;;;;;1.23;1.13;;;;;;;;;;10052491;28;20042;-66
2022/07/30 16:18:44;;;;;;;1.35;1.17;;;;;;;;;;10064827;28;20549;-65
2022/07/30 16:23:42;;;;;;;4.00;1.27;;;;;;;;;;10061275;28;20133;-67
2022/07/30 16:28:35;;;;;;;1.73;1.38;;;;;;;;;;10056104;28;20045;-65
2022/07/30 16:33:29;;;;;;;1.27;1.17;;;;;;;;;;10044995;28;20046;-68
2022/07/30 16:38:23;;;;;;;1.08;0.95;;;;;;;;;;10044073;28;20068;-70
2022/07/30 16:43:17;;;;;;;2.47;1.80;;;;;;;;;;10061724;28;20053;-67
2022/07/30 16:48:12;;;;;;;4.47;1.30;;;;;;;;;;10045174;28;20053;-67
2022/07/30 16:53:25;;;;;;;2.17;1.40;;;;;;;;;;10055845;28;20067;-67
2022/07/30 16:58:20;;;;;;;3.72;1.60;;;;;;;;;;10036931;28;20554;-67
2022/07/30 17:03:24;;;;;;;3.03;1.33;;;;;;;;;;10034444;28;20092;-67
2022/07/30 17:08:18;;;;;;;3.20;1.10;;;;;;;;;;10040851;28;20046;-67
2022/07/30 17:13:17;;;;;;;1.33;1.23;;;;;;;;;;10065778;28;20053;-69
2022/07/30 17:18:11;;;;;;;1.70;1.20;;;;;;;;;;10043855;28;20057;-67
2022/07/30 17:23:06;;;;;;;5.07;3.30;;;;;;;;;;10037135;28;20046;-67
2022/07/30 17:28:00;;;;;;;1.58;1.42;;;;;;;;;;10043274;28;20057;-67
2022/07/30 17:32:53;;;;;;;1.90;1.60;;;;;;;;;;10044528;28;20555;-69
2022/07/30 17:37:48;;;;;;;3.60;1.50;;;;;;;;;;10037844;28;20093;-68
2022/07/30 17:42:45;;;;;;;2.75;1.58;;;;;;;;;;10038641;28;20068;-69
2022/07/30 17:47:39;;;;;;;3.63;1.50;;;;;;;;;;10041136;28;20053;-67
2022/07/30 17:52:35;;;;;;;4.45;1.50;;;;;;;;;;10044031;28;20446;-68
2022/07/30 17:57:28;;;;;;;1.67;1.30;;;;;;;;;;10043823;28;20048;-69
2022/07/30 18:02:23;;;;;;;2.90;1.90;;;;;;;;;;10039095;28;20042;-67
2022/07/30 18:07:19;;;;;;;2.95;2.10;;;;;;;;;;10060693;28;20132;-69
2022/07/30 18:12:14;;;;;;;3.53;2.10;;;;;;;;;;10044762;28;20038;-69
2022/07/30 18:17:08;;;;;;;5.75;2.25;;;;;;;;;;10060379;28;20046;-66
2022/07/30 18:22:06;;;;;;;5.05;2.40;;;;;;;;;;10056448;28;20053;-67
2022/07/30 18:27:01;;;;;;;3.65;1.98;;;;;;;;;;10037553;28;20053;-67
2022/07/30 18:31:55;;;;;;;3.97;1.90;;;;;;;;;;10037943;28;20046;-67
2022/07/30 18:36:50;;;;;;;5.07;1.67;;;;;;;;;;10039586;28;20075;-67
2022/07/30 18:41:45;;;;;;;4.18;1.60;;;;;;;;;;10043166;28;20055;-68
2022/07/30 18:46:39;;;;;;;3.83;1.75;;;;;;;;;;10064387;28;20053;-68
2022/07/30 18:51:33;;;;;;;2.50;1.92;;;;;;;;;;10066016;28;20107;-69
2022/07/30 18:56:27;;;;;;;3.58;1.60;;;;;;;;;;10063479;28;20132;-68
2022/07/30 19:01:22;;;;;;;1.70;1.60;;;;;;;;;;10062463;28;20050;-68
2022/07/30 19:06:17;;;;;;;1.88;1.77;;;;;;;;;;10061657;28;20068;-68
2022/07/30 19:11:14;;;;;;;2.97;2.20;;;;;;;;;;10061190;28;20481;-68
2022/07/30 19:16:09;;;;;;;5.38;1.52;;;;;;;;;;10064699;28;20119;-68
2022/07/30 19:21:03;;;;;;;2.63;1.98;;;;;;;;;;10065464;28;20061;-68
2022/07/30 19:25:58;;;;;;;3.05;2.33;;;;;;;;;;10048739;28;20050;-67
2022/07/30 19:30:59;;;;;;;2.22;2.03;;;;;;;;;;10065892;28;20136;-67
2022/07/30 19:35:52;;;;;;;8.93;2.75;;;;;;;;;;10065939;28;20081;-66
2022/07/30 19:40:46;;;;;;;2.50;2.30;;;;;;;;;;10065548;28;20053;-66
2022/07/30 19:45:42;;;;;;;6.07;2.72;;;;;;;;;;10065952;28;20065;-66
2022/07/30 19:50:40;;;;;;;4.32;2.40;;;;;;;;;;10066356;28;20060;-66
2022/07/30 19:55:36;;;;;;;5.53;3.15;;;;;;;;;;10067350;28;20060;-66
2022/07/30 20:00:29;;;;;;;4.88;4.10;;;;;;;;;;10064810;28;20053;-66
2022/07/30 20:05:28;;;;;;;8.17;4.50;;;;;;;;;;10073814;28;20502;-66
2022/07/30 20:10:22;;;;;;;7.78;5.70;;;;;;;;;;10073442;28;20143;-66
2022/07/30 20:15:17;;;;;;;4.72;3.63;;;;;;;;;;10072630;28;20140;-65
2022/07/30 20:20:12;;;;;;;4.72;3.58;;;;;;;;;;10071418;28;20053;-65
2022/07/30 20:25:08;;;;;;;5.50;3.28;;;;;;;;;;10072520;28;20128;-66
2022/07/30 20:30:03;;;;;;;6.57;2.80;;;;;;;;;;10072754;28;20057;-66
2022/07/30 20:34:59;;;;;;;3.15;2.58;;;;;;;;;;10072270;28;20076;-66
2022/07/30 20:39:53;;;;;;;8.07;2.83;;;;;;;;;;10072125;28;20045;-66
2022/07/30 20:44:48;;;;;;;5.57;2.75;;;;;;;;;;10068313;28;20436;-66
2022/07/30 20:49:42;;;;;;;5.07;2.60;;;;;;;;;;10071255;28;20115;-65
2022/07/30 20:54:37;;;;;;;8.30;3.40;;;;;;;;;;10071523;28;20511;-66
2022/07/30 20:59:39;;;;;;;6.20;3.38;;;;;;;;;;10071024;28;20455;-66
2022/07/30 21:04:35;;;;;;;4.63;3.80;;;;;;;;;;10072617;28;20053;-65
2022/07/30 21:09:32;;;;;;;7.15;3.10;;;;;;;;;;10076552;28;20125;-66
2022/07/30 21:14:44;;;;;;;5.55;3.10;;;;;;;;;;10070668;28;20060;-66
2022/07/30 21:19:40;;;;;;;4.03;3.38;;;;;;;;;;10066955;28;20053;-65
2022/07/30 21:24:35;;;;;;;6.53;3.30;;;;;;;;;;10063380;28;20069;-68
2022/07/30 21:29:30;;;;;;;4.60;4.00;;;;;;;;;;10061365;28;20042;-68
2022/07/30 21:34:30;;;;;;;3.50;3.20;;;;;;;;;;10062126;28;20041;-68
2022/07/30 21:39:34;;;;;;;3.53;2.42;;;;;;;;;;10054657;28;20057;-68
2022/07/30 21:44:32;;;;;;;5.43;3.08;;;;;;;;;;10065841;28;20457;-68
2022/07/30 21:49:26;;;;;;;10.38;2.88;;;;;;;;;;10064521;28;20052;-68
2022/07/30 21:54:24;;;;;;;3.33;3.00;;;;;;;;;;10067591;28;20469;-68
2022/07/30 21:59:38;;;;;;;3.42;2.70;;;;;;;;;;10072620;28;20493;-68
2022/07/30 22:04:31;;;;;;;8.07;4.45;;;;;;;;;;10073153;28;20048;-68
2022/07/30 22:09:25;;;;;;;7.47;3.58;;;;;;;;;;10067887;28;20129;-68
2022/07/30 22:14:28;;;;;;;3.95;3.13;;;;;;;;;;10054453;28;20053;-68
2022/07/30 22:19:26;;;;;;;3.45;3.15;;;;;;;;;;10054772;28;20092;-68
2022/07/30 22:24:20;;;;;;;5.30;3.58;;;;;;;;;;10064154;28;20060;-68
2022/07/30 22:29:36;;;;;;;2.95;2.63;;;;;;;;;;10053818;28;20488;-68
2022/07/30 22:34:32;;;;;;;5.00;2.80;;;;;;;;;;10059644;28;20462;-69
2022/07/30 22:39:27;;;;;;;7.00;3.10;;;;;;;;;;10060442;28;20087;-68
2022/07/30 22:44:43;;;;;;;3.47;2.72;;;;;;;;;;10055608;28;20122;-68
2022/07/30 22:49:40;;;;;;;3.58;2.63;;;;;;;;;;10057025;28;20053;-68
2022/07/30 22:54:49;;;;;;;8.10;2.97;;;;;;;;;;10053920;28;20216;-68
2022/07/30 22:59:43;;;;;;;3.33;2.78;;;;;;;;;;10061941;28;20128;-68
2022/07/30 23:04:53;;;;;;;4.43;2.88;;;;;;;;;;10055765;28;20057;-68
2022/07/30 23:09:51;;;;;;;3.72;3.33;;;;;;;;;;10056357;28;20050;-68
2022/07/30 23:14:48;;;;;;;5.35;2.92;;;;;;;;;;10053462;28;20045;-69
2022/07/30 23:19:43;;;;;;;6.47;3.35;;;;;;;;;;10055204;28;20547;-70
2022/07/30 23:24:38;;;;;;;5.03;4.53;;;;;;;;;;10060229;28;20096;-69
2022/07/30 23:29:34;;;;;;;3.95;3.55;;;;;;;;;;10056709;28;20560;-69
2022/07/30 23:34:30;;;;;;;3.15;2.72;;;;;;;;;;10059805;28;20054;-68
2022/07/30 23:39:25;;;;;;;5.43;3.35;;;;;;;;;;10065851;28;20046;-69
2022/07/30 23:44:19;;;;;;;4.28;3.22;;;;;;;;;;10066045;28;20067;-69
2022/07/30 23:49:14;;;;;;;3.85;2.45;;;;;;;;;;10067175;28;20046;-69
2022/07/30 23:54:08;;;;;;;3.28;2.42;;;;;;;;;;10057801;28;20081;-69
2022/07/30 23:59:04;;;;;;;3.50;2.97;;;;;;;;;;10064945;28;20103;-70
